Time;durP1;ratioP1;P1;durP2;ratioP2;P2;SDS_P1;SDS_P2;PMS_P1;PMS_P2;Temp;Humidity;BMP_temperature;BMP_pressure;BME280_temperature;BME280_humidity;BME280_pressure;Samples;Min_cycle;Max_cycle;Signal;HPM_P1;HPM_P2
2022/04/03 00:04:00;;;;;;;;;;;-0.80;99.90;;;-1.99;100.00;95418.31;10429069;28;1922;-69
2022/04/03 00:09:03;;;;;;;;;;;-0.90;99.90;;;-2.01;100.00;95419.53;10432657;28;1796;-69
2022/04/03 00:14:06;;;;;;;;;;;-0.90;99.90;;;-2.06;100.00;95417.50;10433574;28;1759;-69
2022/04/03 00:19:09;;;;;;;;;;;-1.00;99.90;;;-2.05;100.00;95423.56;10426826;28;2496;-68
2022/04/03 00:24:12;;;;;;;;;;;-1.10;99.90;;;-2.00;100.00;95410.63;10433717;28;1910;-68
2022/04/03 00:29:15;;;;;;;;;;;-1.00;99.90;;;-1.98;100.00;95414.66;10434764;28;1884;-69
2022/04/03 00:34:18;;;;;;;;;;;-1.00;99.90;;;-1.98;100.00;95419.13;10436577;28;1879;-69
2022/04/03 00:39:21;;;;;;;;;;;-0.90;99.90;;;-1.98;100.00;95435.72;10434482;28;1924;-69
2022/04/03 00:44:24;;;;;;;;;;;-0.90;99.90;;;-1.89;100.00;95438.97;10442724;28;1956;-69
2022/04/03 00:49:27;;;;;;;;;;;-0.70;99.90;;;-1.74;100.00;95431.66;10431243;28;2037;-70
2022/04/03 00:54:30;;;;;;;;;;;-0.90;99.90;;;-1.65;100.00;95421.72;10433135;28;1916;-70
2022/04/03 00:59:33;;;;;;;;;;;-0.80;99.90;;;-1.66;100.00;95433.25;10431202;28;1824;-70
2022/04/03 01:04:37;;;;;;;;;;;-0.60;99.90;;;-1.68;100.00;95422.94;10433384;28;2298;-70
2022/04/03 01:09:40;;;;;;;;;;;-0.70;99.90;;;-1.52;100.00;95418.25;10437342;28;2046;-70
2022/04/03 01:14:43;;;;;;;;;;;-0.60;99.90;;;-1.53;100.00;95427.94;10438521;28;2033;-71
2022/04/03 01:19:46;;;;;;;;;;;-0.60;99.90;;;-1.63;100.00;95423.13;10433372;28;2058;-70
2022/04/03 01:24:49;;;;;;;;;;;-0.60;99.90;;;-1.68;100.00;95424.75;10436706;28;2252;-69
2022/04/03 01:29:52;;;;;;;;;;;-0.60;99.90;;;-1.65;100.00;95427.00;10430742;28;2342;-70
2022/04/03 01:34:56;;;;;;;;;;;-0.60;99.90;;;-1.61;100.00;95432.66;10431616;28;2007;-70
2022/04/03 01:39:59;;;;;;;;;;;-0.70;99.90;;;-1.47;100.00;95427.13;10431078;28;2332;-70
2022/04/03 01:45:02;;;;;;;;;;;-0.50;99.90;;;-1.56;100.00;95438.13;10432934;28;1913;-69
2022/04/03 01:50:06;;;;;;;;;;;-0.60;99.90;;;-1.67;100.00;95442.19;10427911;28;2205;-70
2022/04/03 01:55:09;;;;;;;;;;;-0.60;99.90;;;-1.74;100.00;95439.56;10447423;28;1952;-70
2022/04/03 02:00:13;;;;;;;;;;;-0.70;99.90;;;-1.71;100.00;95441.00;10449805;28;2011;-70
2022/04/03 02:05:16;;;;;;;;;;;-0.70;99.90;;;-1.72;100.00;95440.19;10423777;28;2182;-70
2022/04/03 02:10:19;;;;;;;;;;;-0.70;99.90;;;-1.79;100.00;95444.63;10429438;28;1957;-70
2022/04/03 02:15:24;;;;;;;;;;;-0.70;99.90;;;-1.70;100.00;95453.97;10492890;22;3530;-88
2022/04/03 02:20:27;;;;;;;;;;;-0.80;99.90;;;-1.64;100.00;95457.59;10511248;28;1998;-84
2022/04/03 02:25:30;;;;;;;;;;;-0.50;99.90;;;-1.78;100.00;95451.53;10486104;28;1980;-84
2022/04/03 02:30:33;;;;;;;;;;;-0.70;99.90;;;-1.94;100.00;95457.22;10486219;28;2072;-85
2022/04/03 02:35:37;;;;;;;;;;;-0.80;99.90;;;-1.87;100.00;95460.66;10491293;28;1575;-84
2022/04/03 02:40:40;;;;;;;;;;;-0.90;99.90;;;-1.88;100.00;95466.13;10493927;28;1996;-84
2022/04/03 02:45:43;;;;;;;;;;;-0.80;99.90;;;-1.94;100.00;95473.81;10486750;28;1930;-84
2022/04/03 02:50:46;;;;;;;;;;;-0.90;99.90;;;-1.85;100.00;95473.63;10485212;28;1942;-83
2022/04/03 02:55:49;;;;;;;;;;;-0.90;99.90;;;-1.86;100.00;95469.38;10491484;28;1808;-85
2022/04/03 03:00:52;;;;;;;;;;;-0.90;99.90;;;-1.76;100.00;95470.59;10493903;28;1990;-87
2022/04/03 03:05:55;;;;;;;;;;;-0.90;99.90;;;-1.80;100.00;95479.91;10490815;28;2184;-84
2022/04/03 03:10:58;;;;;;;;;;;-0.80;99.90;;;-1.87;100.00;95478.28;10490279;28;1941;-83
2022/04/03 03:16:02;;;;;;;;;;;-0.90;99.90;;;-1.85;100.00;95477.06;10486993;28;2137;-85
2022/04/03 03:21:05;;;;;;;;;;;-0.80;99.90;;;-1.74;100.00;95483.53;10501434;28;2013;-86
2022/04/03 03:26:08;;;;;;;;;;;-0.80;99.90;;;-1.68;100.00;95482.72;10494434;28;2022;-84
2022/04/03 03:31:11;;;;;;;;;;;-0.70;99.90;;;-1.66;100.00;95480.69;10492482;28;1903;-85
2022/04/03 03:36:14;;;;;;;;;;;-0.70;99.90;;;-1.60;100.00;95486.97;10496285;28;1930;-83
2022/04/03 03:41:17;;;;;;;;;;;-0.70;99.90;;;-1.60;100.00;95493.06;10495827;28;1981;-84
2022/04/03 03:46:20;;;;;;;;;;;-0.60;99.90;;;-1.54;100.00;95494.88;10499047;28;1984;-84
2022/04/03 03:51:24;;;;;;;;;;;-0.60;99.90;;;-1.48;100.00;95496.69;10490194;28;1809;-84
2022/04/03 03:56:27;;;;;;;;;;;-0.60;99.90;;;-1.56;100.00;95499.56;10489996;28;1801;-84
2022/04/03 04:01:30;;;;;;;;;;;-0.60;99.90;;;-1.56;100.00;95499.56;10499575;28;1848;-86
2022/04/03 04:06:34;;;;;;;;;;;-0.60;99.90;;;-1.66;100.00;95515.75;10509398;28;1918;-86
2022/04/03 04:11:37;;;;;;;;;;;-0.70;99.90;;;-1.57;100.00;95515.56;10538017;28;1821;-83
2022/04/03 04:16:42;;;;;;;;;;;-0.60;99.90;;;-1.50;100.00;95516.38;10494239;28;1769;-85
2022/04/03 04:21:45;;;;;;;;;;;-0.60;99.90;;;-1.56;100.00;95527.75;10490706;28;1935;-85
2022/04/03 04:26:49;;;;;;;;;;;-0.60;99.90;;;-1.59;100.00;95520.22;10487653;28;1984;-86
2022/04/03 04:31:52;;;;;;;;;;;-0.60;99.90;;;-1.58;100.00;95533.22;10494975;28;2011;-85
2022/04/03 04:36:55;;;;;;;;;;;-0.50;99.90;;;-1.56;100.00;95530.38;10533154;28;1906;-88
2022/04/03 04:41:59;;;;;;;;;;;-0.50;99.90;;;-1.42;100.00;95537.25;10529545;28;1897;-86
2022/04/03 04:47:02;;;;;;;;;;;-0.50;99.90;;;-1.50;100.00;95534.84;10517666;28;1969;-83
2022/04/03 04:52:05;;;;;;;;;;;-0.40;99.90;;;-1.53;100.00;95548.41;10516986;28;2085;-84
2022/04/03 04:57:08;;;;;;;;;;;-0.60;99.90;;;-1.55;100.00;95545.16;10486894;28;1927;-85
2022/04/03 05:02:11;;;;;;;;;;;-0.50;99.90;;;-1.49;100.00;95552.25;10483386;28;1913;-86
2022/04/03 05:07:14;;;;;;;;;;;-0.50;99.90;;;-1.47;100.00;95553.66;10485077;28;1991;-85
2022/04/03 05:12:17;;;;;;;;;;;-0.50;99.90;;;-1.46;100.00;95567.69;10485669;28;1836;-86
2022/04/03 05:17:21;;;;;;;;;;;-0.50;99.90;;;-1.46;100.00;95562.41;10492908;28;1908;-87
2022/04/03 05:22:26;;;;;;;;;;;-0.40;99.90;;;-1.60;100.00;95568.69;10515434;28;1950;-87
2022/04/03 05:27:29;;;;;;;;;;;-0.60;99.90;;;-1.50;100.00;95572.53;10488665;28;1919;-84
2022/04/03 05:32:32;;;;;;;;;;;-0.60;99.90;;;-1.42;100.00;95582.06;10497680;28;1892;-84
2022/04/03 05:37:36;;;;;;;;;;;-0.60;99.90;;;-1.42;100.00;95587.34;10510573;28;1848;-85
2022/04/03 05:42:39;;;;;;;;;;;-0.60;99.90;;;-1.41;100.00;95594.22;10498874;28;2071;-84
2022/04/03 05:47:42;;;;;;;;;;;-0.30;99.90;;;-1.51;100.00;95593.84;10500370;28;1694;-83
2022/04/03 05:52:47;;;;;;;;;;;-0.50;99.90;;;-1.40;100.00;95603.75;10483774;28;1936;-85
2022/04/03 05:57:50;;;;;;;;;;;-0.30;99.90;;;-1.43;100.00;95601.53;10481238;28;1805;-85
2022/04/03 06:02:53;;;;;;;;;;;-0.40;99.90;;;-1.29;100.00;95607.63;10488906;28;2009;-85
2022/04/03 06:07:57;;;;;;;;;;;-0.40;99.90;;;-1.37;100.00;95606.81;10493908;28;1991;-85
2022/04/03 06:13:00;;;;;;;;;;;-0.30;99.90;;;-1.13;100.00;95610.66;10493857;28;1972;-85
2022/04/03 06:18:04;;;;;;;;;;;-0.20;99.90;;;-0.75;100.00;95614.47;10501760;28;1849;-83
2022/04/03 06:23:07;;;;;;;;;;;0.00;99.90;;;-0.72;100.00;95614.84;10509365;28;2110;-87
2022/04/03 06:28:16;;;;;;;;;;;0.30;99.90;;;-0.68;100.00;95616.06;10501540;28;1999;-87
2022/04/03 06:33:20;;;;;;;;;;;0.20;99.90;;;-0.84;100.00;95627.06;10512685;28;1878;-86
2022/04/03 06:38:23;;;;;;;;;;;0.20;99.90;;;-1.19;100.00;95629.94;10488568;28;1998;-82
2022/04/03 06:43:26;;;;;;;;;;;-0.10;99.90;;;-1.09;100.00;95643.50;10491374;28;1961;-85
2022/04/03 06:48:30;;;;;;;;;;;-0.20;99.90;;;-0.92;100.00;95646.56;10493785;28;1919;-86
2022/04/03 06:53:33;;;;;;;;;;;0.00;99.90;;;-1.31;100.00;95652.66;10532956;28;1575;-84
2022/04/03 06:58:36;;;;;;;;;;;-0.20;99.90;;;-1.50;100.00;95659.53;10512068;28;1774;-83
2022/04/03 07:03:39;;;;;;;;;;;-0.40;99.90;;;-1.35;100.00;95659.34;10503494;28;2089;-83
2022/04/03 07:08:43;;;;;;;;;;;-0.20;99.90;;;-1.19;100.00;95661.59;10494995;28;1860;-85
2022/04/03 07:13:48;;;;;;;;;;;-0.30;99.90;;;-1.11;100.00;95668.50;10516393;28;1929;-86
2022/04/03 07:18:51;;;;;;;;;;;-0.20;99.90;;;-0.97;100.00;95664.00;10532105;28;1729;-85
2022/04/03 07:23:54;;;;;;;;;;;0.00;99.90;;;-0.64;100.00;95677.97;10527598;28;1887;-85
2022/04/03 07:28:59;;;;;;;;;;;0.20;99.90;;;-0.85;100.00;95681.66;10499369;28;2255;-83
2022/04/03 07:34:02;;;;;;;;;;;0.20;99.90;;;-0.86;100.00;95687.97;10504135;28;1877;-83
2022/04/03 07:39:06;;;;;;;;;;;0.10;99.90;;;-0.37;100.00;95685.88;10514578;28;1823;-83
2022/04/03 07:44:09;;;;;;;;;;;0.40;99.90;;;-0.46;100.00;95684.44;10496923;28;1973;-83
2022/04/03 07:49:17;;;;;;;;;;;0.60;99.90;;;-0.13;100.00;95692.28;10515689;28;1756;-85
2022/04/03 07:54:20;;;;;;;;;;;0.70;99.90;;;0.35;100.00;95695.34;10509070;28;2067;-85
2022/04/03 07:59:23;;;;;;;;;;;1.10;99.90;;;0.11;98.86;95703.97;10507100;28;2128;-85
2022/04/03 08:04:27;;;;;;;;;;;1.20;99.90;;;0.09;97.83;95700.75;10505813;28;2081;-85
2022/04/03 08:09:30;;;;;;;;;;;1.10;99.90;;;0.19;99.61;95706.38;10483581;22;3572;-71
2022/04/03 08:14:33;;;;;;;;;;;1.00;99.90;;;0.95;100.00;95709.00;10433961;28;1861;-71
2022/04/03 08:19:39;;;;;;;;;;;1.40;99.90;;;0.74;96.99;95715.44;10435674;28;2152;-71
2022/04/03 08:24:43;;;;;;;;;;;1.60;99.90;;;1.85;93.38;95713.91;10428814;28;1968;-71
2022/04/03 08:29:47;;;;;;;;;;;2.00;99.90;;;2.63;86.74;95716.63;10447117;28;1894;-71
2022/04/03 08:34:50;;;;;;;;;;;3.00;99.90;;;2.44;82.69;95715.06;10454079;28;1592;-77
2022/04/03 08:39:53;;;;;;;;;;;3.20;99.90;;;1.71;84.30;95730.97;10545527;22;2485;-69
2022/04/03 08:44:56;;;;;;;;;;;2.80;99.90;;;1.82;84.92;95732.91;10562224;28;1931;-70
2022/04/03 08:49:58;;;;;;;;;;;2.60;99.90;;;1.83;85.29;95732.66;10567930;28;1829;-69
2022/04/03 08:55:01;;;;;;;;;;;2.80;99.90;;;1.33;87.92;95748.59;10566636;28;1885;-70
2022/04/03 09:00:04;;;;;;;;;;;2.60;99.90;;;2.28;85.56;95736.88;10561130;28;1973;-70
2022/04/03 09:05:09;;;;;;;;;;;2.70;99.90;;;2.90;80.60;95740.16;10566563;28;1905;-70
2022/04/03 09:10:13;;;;;;;;;;;3.30;99.90;;;3.18;74.92;95736.88;10562484;28;1981;-69
2022/04/03 09:15:15;;;;;;;;;;;3.90;99.90;;;2.09;78.78;95733.41;10566295;28;1465;-72
2022/04/03 09:20:18;;;;;;;;;;;3.30;99.90;;;1.31;82.21;95753.31;10566908;28;1893;-70
2022/04/03 09:25:21;;;;;;;;;;;2.60;99.90;;;1.88;84.16;95747.94;10555760;28;1969;-70
2022/04/03 09:30:24;;;;;;;;;;;2.40;99.90;;;2.66;81.82;95750.69;10560472;28;1796;-69
2022/04/03 09:35:27;;;;;;;;;;;2.90;99.90;;;2.57;77.74;95754.69;10574817;27;1978;-70
2022/04/03 09:40:30;;;;;;;;;;;3.20;99.90;;;2.01;76.25;95762.88;10560266;28;1853;-69
2022/04/03 09:45:33;;;;;;;;;;;3.10;99.90;;;3.27;80.92;95754.13;10573214;27;1910;-70
2022/04/03 09:50:36;;;;;;;;;;;3.30;99.90;;;3.20;76.28;95753.41;10554150;28;1901;-70
2022/04/03 09:55:39;;;;;;;;;;;3.70;99.90;;;2.21;78.66;95758.16;10558962;28;1774;-68
2022/04/03 10:00:42;;;;;;;;;;;3.30;99.90;;;2.60;76.78;95758.72;10562543;28;1817;-70
2022/04/03 10:05:45;;;;;;;;;;;3.20;99.90;;;3.11;79.12;95752.91;10549782;28;1969;-68
2022/04/03 10:10:48;;;;;;;;;;;3.40;99.90;;;3.46;78.85;95753.00;10550333;27;1849;-67
2022/04/03 10:15:52;;;;;;;;;;;3.60;99.90;;;1.81;76.29;95755.94;10553716;28;1809;-66
2022/04/03 10:20:56;;;;;;;;;;;3.20;99.90;;;2.12;71.89;95756.84;10566497;27;1825;-70
2022/04/03 10:25:59;;;;;;;;;;;2.80;99.90;;;1.56;75.97;95753.31;10559312;28;1897;-68
2022/04/03 10:31:06;;;;;;;;;;;2.60;99.90;;;1.70;78.40;95754.00;10560733;28;1818;-68
2022/04/03 10:36:10;;;;;;;;;;;2.40;99.90;;;2.30;81.29;95756.06;10568939;28;1850;-69
2022/04/03 10:41:13;;;;;;;;;;;2.60;99.90;;;1.76;74.82;95749.69;10561620;28;1442;-70
2022/04/03 10:46:16;;;;;;;;;;;2.90;99.90;;;1.55;78.90;95754.34;10559949;28;1906;-70
2022/04/03 10:51:23;;;;;;;;;;;2.50;99.90;;;1.95;76.46;95755.81;10558285;28;1912;-69
2022/04/03 10:56:27;;;;;;;;;;;2.50;99.90;;;1.49;75.63;95760.50;10557798;28;1845;-70
2022/04/03 11:01:30;;;;;;;;;;;2.60;99.90;;;2.32;74.18;95748.66;10558808;28;1775;-68
2022/04/03 11:06:33;;;;;;;;;;;2.60;99.90;;;3.55;69.57;95748.13;10553283;28;1914;-72
2022/04/03 11:11:36;;;;;;;;;;;3.40;99.90;;;2.17;71.96;95752.50;10557431;28;1806;-69
2022/04/03 11:16:39;;;;;;;;;;;3.50;99.90;;;2.33;74.81;95760.91;10555719;28;1814;-69
2022/04/03 11:21:43;;;;;;;;;;;3.00;99.90;;;2.40;70.96;95756.31;10564266;28;1833;-68
2022/04/03 11:26:45;;;;;;;;;;;3.20;99.90;;;2.19;71.09;95754.13;10558318;28;1977;-68
2022/04/03 11:31:48;;;;;;;;;;;3.10;99.90;;;2.76;71.40;95744.03;10562232;28;1837;-69
2022/04/03 11:36:51;;;;;;;;;;;3.10;99.90;;;3.05;67.73;95745.84;10558674;28;1842;-68
2022/04/03 11:41:54;;;;;;;;;;;3.60;99.90;;;3.09;68.15;95749.69;10592150;27;1804;-69
2022/04/03 11:47:00;;;;;;;;;;;3.70;99.90;;;2.66;64.83;95748.03;10570227;28;1921;-68
2022/04/03 11:52:03;;;;;;;;;;;3.80;99.90;;;2.20;67.89;95753.91;10573419;28;1853;-69
2022/04/03 11:57:06;;;;;;;;;;;3.20;99.90;;;1.82;66.47;95752.25;10585473;27;1878;-69
2022/04/03 12:02:09;;;;;;;;;;;2.80;99.90;;;2.93;68.38;95747.69;10566779;28;2175;-69
2022/04/03 12:07:13;;;;;;;;;;;3.20;99.90;;;4.26;62.42;95739.09;10568291;28;1979;-70
2022/04/03 12:12:16;;;;;;;;;;;4.00;99.90;;;3.79;62.83;95749.78;10561569;28;1872;-67
2022/04/03 12:17:20;;;;;;;;;;;4.60;99.90;;;3.00;61.98;95756.38;10563685;28;1869;-69
2022/04/03 12:22:23;;;;;;;;;;;4.50;99.90;;;2.66;62.66;95750.69;10559041;28;1951;-68
2022/04/03 12:27:27;;;;;;;;;;;3.90;99.90;;;2.29;61.71;95754.41;10556152;28;2229;-67
2022/04/03 12:32:32;;;;;;;;;;;3.30;99.90;;;2.61;61.07;95741.78;10561867;28;1915;-70
2022/04/03 12:37:35;;;;;;;;;;;3.20;99.90;;;2.34;60.75;95744.75;10558947;28;2365;-72
2022/04/03 12:42:38;;;;;;;;;;;3.10;99.90;;;3.07;61.55;95741.13;10560169;28;1968;-67
2022/04/03 12:47:40;;;;;;;;;;;3.50;99.90;;;2.78;58.48;95747.28;10556025;28;1901;-68
2022/04/03 12:52:45;;;;;;;;;;;3.60;99.90;;;4.33;58.01;95734.47;10554922;28;1887;-68
2022/04/03 13:03:09;;;;;;;;;;;4.90;99.90;;;3.96;55.47;95741.13;10552521;28;1865;-70
2022/04/03 13:08:12;;;;;;;;;;;4.80;99.90;;;3.73;57.95;95736.59;10567543;27;1918;-69
2022/04/03 13:13:15;;;;;;;;;;;4.50;99.90;;;3.54;57.38;95735.91;10555954;28;1880;-68
2022/04/03 13:18:19;;;;;;;;;;;4.30;99.90;;;3.66;58.24;95728.75;10556992;28;1814;-69
2022/04/03 13:23:22;;;;;;;;;;;4.40;99.90;;;2.81;60.18;95741.53;10555764;28;1994;-67
2022/04/03 13:28:25;;;;;;;;;;;4.10;99.90;;;2.14;63.11;95730.91;10554410;28;1992;-69
2022/04/03 13:33:28;;;;;;;;;;;3.30;99.90;;;2.44;59.98;95736.28;10544057;28;1893;-69
2022/04/03 13:38:31;;;;;;;;;;;3.50;99.90;;;2.12;63.50;95723.19;10563579;28;1965;-68
2022/04/03 13:43:34;;;;;;;;;;;3.20;99.90;;;1.63;60.54;95724.91;10552320;28;1870;-69
2022/04/03 13:48:37;;;;;;;;;;;2.80;99.90;;;1.27;58.70;95730.97;10555359;28;1983;-69
2022/04/03 13:53:40;;;;;;;;;;;2.60;99.90;;;1.86;61.95;95712.88;10551901;28;1901;-67
2022/04/03 13:58:43;;;;;;;;;;;2.50;99.90;;;1.81;59.75;95716.19;10557774;28;1973;-68
2022/04/03 14:03:47;;;;;;;;;;;2.60;99.90;;;1.99;56.88;95718.03;10558609;28;1903;-69
2022/04/03 14:08:51;;;;;;;;;;;2.90;99.90;;;2.03;59.01;95713.09;10561639;27;1977;-67
2022/04/03 14:13:54;;;;;;;;;;;2.90;99.90;;;2.34;58.30;95714.75;10549473;28;2064;-69
2022/04/03 14:18:57;;;;;;;;;;;2.70;99.90;;;2.64;59.69;95714.78;10554862;28;2044;-67
2022/04/03 14:24:02;;;;;;;;;;;3.40;99.90;;;2.08;60.58;95708.75;10541327;28;1869;-68
2022/04/03 14:29:05;;;;;;;;;;;3.30;99.90;;;1.41;60.76;95712.31;10549529;28;1979;-68
2022/04/03 14:34:08;;;;;;;;;;;2.70;99.90;;;1.63;61.08;95716.97;10558124;28;2055;-70
2022/04/03 14:39:12;;;;;;;;;;;2.60;99.90;;;1.72;61.73;95712.22;10551896;28;1960;-66
2022/04/03 14:44:14;;;;;;;;;;;2.60;99.90;;;1.17;61.35;95724.53;10556823;28;1818;-69
2022/04/03 14:49:18;;;;;;;;;;;2.50;99.90;;;1.31;62.96;95718.91;10556523;28;1977;-69
2022/04/03 14:54:21;;;;;;;;;;;2.30;99.90;;;1.36;58.27;95728.84;10559564;28;1873;-67
2022/04/03 14:59:24;;;;;;;;;;;2.30;99.90;;;1.19;60.58;95722.47;10551548;28;1817;-67
2022/04/03 15:04:27;;;;;;;;;;;2.10;99.90;;;1.38;59.08;95731.28;10556625;28;1905;-69
2022/04/03 15:09:33;;;;;;;;;;;2.20;99.90;;;1.68;57.95;95726.13;10555324;28;1922;-69
2022/04/03 15:14:37;;;;;;;;;;;2.50;99.90;;;1.88;58.75;95729.38;10552510;27;1970;-68
2022/04/03 15:19:40;;;;;;;;;;;2.70;99.90;;;1.95;60.29;95730.09;10561588;28;1807;-69
2022/04/03 15:24:45;;;;;;;;;;;2.60;99.90;;;1.74;56.75;95735.84;10566677;27;1877;-70
2022/04/03 15:29:50;;;;;;;;;;;2.80;99.90;;;1.37;64.02;95741.06;10558800;28;1910;-68
2022/04/03 15:34:53;;;;;;;;;;;2.50;99.90;;;1.79;62.34;95741.31;10562966;28;1823;-67
2022/04/03 15:39:56;;;;;;;;;;;2.50;99.90;;;1.83;60.72;95755.72;10553472;27;1877;-68
2022/04/03 15:45:00;;;;;;;;;;;2.70;99.90;;;1.36;61.87;95752.69;10570425;27;1919;-67
2022/04/03 15:50:05;;;;;;;;;;;2.40;99.90;;;1.33;65.36;95753.91;10554896;27;1934;-68
2022/04/03 15:55:08;;;;;;;;;;;2.40;99.90;;;1.37;65.15;95756.94;10563081;28;1802;-68
2022/04/03 16:00:12;;;;;;;;;;;2.30;99.90;;;1.44;63.75;95765.66;10560894;28;1869;-69
2022/04/03 16:05:15;;;;;;;;;;;2.40;99.90;;;1.53;67.83;95764.38;10564625;28;1969;-69
2022/04/03 16:10:27;;;;;;;;;;;2.40;99.90;;;1.29;65.57;95759.88;10569036;27;1871;-68
2022/04/03 16:15:30;;;;;;;;;;;2.30;99.90;;;1.24;62.15;95757.06;10557454;28;1837;-69
2022/04/03 16:20:34;;;;;;;;;;;2.20;99.90;;;1.20;65.12;95764.59;10563016;28;1826;-68
2022/04/03 16:25:38;;;;;;;;;;;2.10;99.90;;;1.22;63.57;95761.75;10555358;28;1969;-69
2022/04/03 16:30:41;;;;;;;;;;;2.10;99.90;;;1.16;60.45;95765.28;10561689;28;1830;-68
2022/04/03 16:35:44;;;;;;;;;;;2.10;99.90;;;1.19;59.94;95770.94;10562084;27;1881;-70
2022/04/03 16:40:47;;;;;;;;;;;2.10;99.90;;;1.16;59.37;95775.84;10555806;28;1848;-68
2022/04/03 16:45:49;;;;;;;;;;;2.30;99.90;;;1.18;64.43;95779.09;10552578;28;1901;-69
2022/04/03 16:50:52;;;;;;;;;;;2.20;99.90;;;0.78;59.46;95784.63;10564962;28;1781;-69
2022/04/03 16:55:57;;;;;;;;;;;2.00;99.90;;;0.78;66.53;95779.34;10565184;28;1793;-69
2022/04/03 17:01:00;;;;;;;;;;;1.80;99.90;;;0.81;65.45;95785.00;10558193;28;1881;-69
2022/04/03 17:06:03;;;;;;;;;;;1.80;99.90;;;0.69;65.01;95792.00;10557967;27;1910;-69
2022/04/03 17:11:06;;;;;;;;;;;1.70;99.90;;;0.42;66.46;95793.94;10564425;27;1937;-69
2022/04/03 17:16:09;;;;;;;;;;;1.70;99.90;;;0.39;67.12;95791.75;10552833;28;1852;-68
2022/04/03 17:21:12;;;;;;;;;;;1.50;99.90;;;0.06;67.11;95807.69;10558517;28;1921;-69
2022/04/03 17:26:15;;;;;;;;;;;1.30;99.90;;;0.07;68.20;95819.09;10561132;28;1985;-68
2022/04/03 17:31:19;;;;;;;;;;;1.20;99.90;;;-0.06;65.87;95823.38;10550532;28;1905;-68
2022/04/03 17:36:30;;;;;;;;;;;1.00;99.90;;;-0.21;65.45;95824.59;10548644;28;1900;-70
2022/04/03 17:41:33;;;;;;;;;;;0.90;99.90;;;-0.31;65.07;95827.66;10557616;28;1924;-70
2022/04/03 17:46:37;;;;;;;;;;;0.90;99.90;;;-0.33;68.43;95837.59;10576609;27;2009;-69
2022/04/03 17:51:40;;;;;;;;;;;0.80;99.90;;;-0.38;67.71;95838.25;10559924;28;1969;-69
2022/04/03 17:56:43;;;;;;;;;;;0.80;99.90;;;-0.52;65.56;95841.88;10552175;28;1817;-69
2022/04/03 18:01:46;;;;;;;;;;;0.70;99.90;;;-0.54;66.63;95849.19;10559660;28;1877;-69
2022/04/03 18:06:49;;;;;;;;;;;0.70;99.90;;;-0.54;68.82;95849.19;10577067;27;1902;-68
2022/04/03 18:11:52;;;;;;;;;;;0.60;99.90;;;-0.56;70.68;95846.75;10563388;28;1818;-70
2022/04/03 18:16:59;;;;;;;;;;;0.60;99.90;;;-0.61;69.15;95857.09;10556694;28;1834;-69
2022/04/03 18:22:03;;;;;;;;;;;0.50;99.90;;;-0.71;69.37;95863.78;10563159;28;1824;-69
2022/04/03 18:27:10;;;;;;;;;;;0.50;99.90;;;-0.71;70.96;95861.97;10540706;28;2149;-69
2022/04/03 18:32:14;;;;;;;;;;;0.40;99.90;;;-0.82;72.65;95867.84;10546838;28;1837;-70
2022/04/03 18:37:18;;;;;;;;;;;0.40;99.90;;;-0.82;68.65;95878.41;10572287;28;1832;-71
2022/04/03 18:42:20;;;;;;;;;;;0.40;99.90;;;-0.94;68.02;95882.63;10550108;28;1931;-69
2022/04/03 18:47:24;;;;;;;;;;;0.30;99.90;;;-0.87;67.88;95886.09;10556269;28;1910;-70
2022/04/03 18:52:27;;;;;;;;;;;0.30;99.90;;;-0.96;68.80;95895.19;10557569;28;1826;-70
2022/04/03 18:57:29;;;;;;;;;;;0.20;99.90;;;-1.11;69.06;95901.44;10573533;27;1856;-69
2022/04/03 19:02:33;;;;;;;;;;;0.20;99.90;;;-1.09;69.86;95907.31;10564651;28;1833;-69
2022/04/03 19:07:36;;;;;;;;;;;0.10;99.90;;;-1.03;72.60;95907.56;10559871;28;1914;-70
2022/04/03 19:12:39;;;;;;;;;;;0.10;99.90;;;-1.04;74.94;95906.75;10560935;28;2087;-68
2022/04/03 19:17:43;;;;;;;;;;;0.10;99.90;;;-1.12;72.05;95913.00;10564777;28;1978;-71
2022/04/03 19:22:46;;;;;;;;;;;0.10;99.90;;;-1.09;70.78;95909.97;10560950;28;2011;-69
2022/04/03 19:27:51;;;;;;;;;;;0.10;99.90;;;-1.09;73.55;95912.59;10557547;27;1910;-70
2022/04/03 19:32:55;;;;;;;;;;;0.00;99.90;;;-1.05;74.37;95909.59;10563502;28;1849;-69
2022/04/03 19:37:58;;;;;;;;;;;0.10;99.90;;;-0.89;76.12;95912.69;10568220;28;1903;-69
2022/04/03 19:43:01;;;;;;;;;;;0.10;99.90;;;-0.93;74.29;95910.66;10554102;28;2001;-69
2022/04/03 19:48:04;;;;;;;;;;;0.20;99.90;;;-0.84;73.01;95906.81;10566433;28;1979;-68
2022/04/03 19:53:06;;;;;;;;;;;0.20;99.90;;;-0.86;69.44;95916.75;10557337;28;1868;-69
2022/04/03 19:58:09;;;;;;;;;;;0.20;99.90;;;-0.98;69.79;95920.97;10559355;28;1865;-70
2022/04/03 20:03:12;;;;;;;;;;;0.20;99.90;;;-1.00;67.77;95923.00;10555784;28;1917;-69
2022/04/03 20:08:15;;;;;;;;;;;0.20;99.90;;;-0.99;70.36;95919.34;10555176;28;2013;-70
2022/04/03 20:13:18;;;;;;;;;;;0.00;99.90;;;-0.99;72.00;95916.72;10559897;28;1910;-69
2022/04/03 20:18:22;;;;;;;;;;;0.10;99.90;;;-0.88;72.30;95916.16;10552736;27;2055;-69
2022/04/03 20:23:30;;;;;;;;;;;0.20;99.90;;;-0.92;69.87;95922.81;10552615;28;1893;-70
2022/04/03 20:28:35;;;;;;;;;;;0.20;99.90;;;-0.88;73.43;95924.88;10566259;28;1980;-69
2022/04/03 20:33:38;;;;;;;;;;;0.20;99.90;;;-0.85;72.66;95926.28;10552875;28;2398;-70
2022/04/03 20:38:42;;;;;;;;;;;0.20;99.90;;;-0.85;73.29;95929.75;10559291;28;1853;-69
2022/04/03 20:43:45;;;;;;;;;;;0.30;99.90;;;-0.80;73.84;95925.72;10555348;28;1877;-69
2022/04/03 20:48:47;;;;;;;;;;;0.30;99.90;;;-0.88;74.04;95926.72;10557726;28;2040;-68
2022/04/03 20:53:51;;;;;;;;;;;0.20;99.90;;;-0.80;73.54;95928.34;10568729;28;2095;-69
2022/04/03 20:58:55;;;;;;;;;;;0.30;99.90;;;-0.89;72.73;95930.34;10555288;28;1861;-69
2022/04/03 21:03:58;;;;;;;;;;;0.20;99.90;;;-0.92;70.22;95936.03;10555853;28;1883;-69
2022/04/03 21:09:02;;;;;;;;;;;0.20;99.90;;;-1.00;73.58;95933.56;10555041;28;1902;-69
2022/04/03 21:14:05;;;;;;;;;;;0.10;99.90;;;-0.98;72.33;95934.16;10544119;28;1970;-69
2022/04/03 21:19:09;;;;;;;;;;;0.10;99.90;;;-0.97;71.69;95935.78;10563340;27;1957;-70
2022/04/03 21:24:12;;;;;;;;;;;0.10;99.90;;;-0.91;71.87;95942.91;10550578;28;1959;-69
2022/04/03 21:29:19;;;;;;;;;;;0.20;99.90;;;-0.86;69.11;95932.59;10568357;27;2009;-68
2022/04/03 21:34:21;;;;;;;;;;;0.30;99.90;;;-0.93;69.28;95937.84;10551832;28;1956;-69
2022/04/03 21:39:25;;;;;;;;;;;0.10;99.90;;;-1.17;69.27;95933.88;10557597;27;1922;-69
2022/04/03 21:44:29;;;;;;;;;;;0.10;99.90;;;-1.18;69.79;95937.53;10565000;27;1968;-68
2022/04/03 21:49:31;;;;;;;;;;;0.00;99.90;;;-1.23;71.26;95923.31;10559264;28;1926;-71
2022/04/03 21:54:35;;;;;;;;;;;0.00;99.90;;;-1.38;70.67;95929.53;10556495;28;1861;-69
2022/04/03 21:59:37;;;;;;;;;;;-0.20;99.90;;;-1.42;75.74;95924.84;10556798;28;1799;-71
2022/04/03 22:04:40;;;;;;;;;;;-0.20;99.90;;;-1.44;75.85;95937.41;10555485;28;1849;-68
2022/04/03 22:09:43;;;;;;;;;;;-0.30;99.90;;;-1.53;78.20;95938.56;10555443;28;1938;-69
2022/04/03 22:14:46;;;;;;;;;;;-0.30;99.90;;;-1.58;77.36;95939.16;10556157;28;1902;-69
2022/04/03 22:19:49;;;;;;;;;;;-0.30;99.90;;;-1.67;78.79;95940.31;10556092;28;1816;-69
2022/04/03 22:24:52;;;;;;;;;;;-0.40;99.90;;;-1.70;78.25;95944.16;10557999;28;1814;-69
2022/04/03 22:29:55;;;;;;;;;;;-0.50;99.90;;;-1.54;79.84;95939.56;10549034;28;1985;-68
2022/04/03 22:35:00;;;;;;;;;;;-0.50;99.90;;;-1.46;81.15;95944.72;10556516;28;1841;-69
2022/04/03 22:40:03;;;;;;;;;;;-0.40;99.90;;;-1.46;80.89;95939.44;10561153;28;1778;-68
2022/04/03 22:45:06;;;;;;;;;;;-0.30;99.90;;;-1.53;81.96;95943.81;10550456;28;1790;-71
2022/04/03 22:50:09;;;;;;;;;;;-0.40;99.90;;;-1.63;83.61;95947.63;10559985;28;2257;-69
2022/04/03 22:55:12;;;;;;;;;;;-0.40;99.90;;;-1.71;83.82;95950.44;10550399;28;1937;-69
2022/04/03 23:00:16;;;;;;;;;;;-0.50;99.90;;;-1.82;85.16;95940.41;10552627;28;1786;-70
2022/04/03 23:05:19;;;;;;;;;;;-0.50;99.90;;;-1.86;86.25;95948.88;10563866;28;2220;-68
2022/04/03 23:10:22;;;;;;;;;;;-0.70;99.90;;;-1.83;85.39;95932.72;10556836;28;2202;-69
2022/04/03 23:15:28;;;;;;;;;;;-0.60;99.90;;;-1.86;86.76;95939.16;10554248;28;1801;-69
2022/04/03 23:20:30;;;;;;;;;;;-0.60;99.90;;;-1.87;85.66;95931.47;10558658;28;1853;-69
2022/04/03 23:25:34;;;;;;;;;;;-0.60;99.90;;;-2.06;87.13;95931.13;10552520;28;1809;-71
2022/04/03 23:30:36;;;;;;;;;;;-0.70;99.90;;;-2.31;87.71;95928.06;10552237;28;1918;-69